Time;durP1;ratioP1;P1;durP2;ratioP2;P2;SDS_P1;SDS_P2;PMS_P1;PMS_P2;Temp;Humidity;BMP_temperature;BMP_pressure;BME280_temperature;BME280_humidity;BME280_pressure;Samples;Min_cycle;Max_cycle;Signal;HPM_P1;HPM_P2
2022/04/18 00:01:50;;;;;;;9.07;8.40;;;9.60;47.10;;;;;;5073339;28;20221;-54
2022/04/18 00:04:17;;;;;;;9.57;8.90;;;9.60;47.60;;;;;;5073327;28;20285;-55
2022/04/18 00:06:44;;;;;;;9.20;8.50;;;9.60;47.50;;;;;;5073276;28;20207;-54
2022/04/18 00:09:11;;;;;;;8.88;8.27;;;9.60;47.80;;;;;;5073217;28;20632;-55
2022/04/18 00:11:38;;;;;;;9.05;8.45;;;9.50;48.00;;;;;;5072885;28;20294;-55
2022/04/18 00:14:05;;;;;;;9.10;8.50;;;9.50;48.00;;;;;;5071604;28;20232;-55
2022/04/18 00:16:33;;;;;;;9.00;8.40;;;9.50;48.30;;;;;;5073198;28;20212;-55
2022/04/18 00:19:00;;;;;;;9.85;9.05;;;9.50;48.80;;;;;;5073049;28;20619;-55
2022/04/18 00:21:27;;;;;;;8.93;8.32;;;9.40;48.60;;;;;;5073076;28;20296;-55
2022/04/18 00:23:54;;;;;;;9.00;8.40;;;9.40;48.90;;;;;;5073189;28;20204;-55
2022/04/18 00:26:21;;;;;;;8.82;8.32;;;9.40;49.50;;;;;;5072753;28;20614;-54
2022/04/18 00:28:48;;;;;;;9.25;8.60;;;9.20;49.80;;;;;;5071519;28;20241;-55
2022/04/18 00:31:15;;;;;;;9.80;9.10;;;9.10;52.20;;;;;;5072840;28;20703;-55
2022/04/18 00:33:43;;;;;;;9.57;9.00;;;9.10;51.20;;;;;;5072819;28;20316;-55
2022/04/18 00:36:10;;;;;;;9.15;8.57;;;9.00;51.20;;;;;;5072879;28;20237;-54
2022/04/18 00:38:36;;;;;;;8.57;8.00;;;9.00;50.80;;;;;;5072724;28;20207;-55
2022/04/18 00:41:03;;;;;;;9.93;9.02;;;8.90;51.30;;;;;;5072568;28;20257;-55
2022/04/18 00:43:41;;;;;;;8.85;8.35;;;8.90;51.20;;;;;;5072684;28;20673;-54
2022/04/18 00:46:09;;;;;;;8.60;8.10;;;8.80;51.60;;;;;;5072680;28;20206;-54
2022/04/18 00:48:36;;;;;;;9.40;8.82;;;8.80;51.80;;;;;;5072531;28;20237;-54
2022/04/18 00:51:05;;;;;;;9.50;8.80;;;8.80;52.40;;;;;;5072858;28;20201;-55
2022/04/18 00:53:32;;;;;;;8.60;8.10;;;8.80;52.40;;;;;;5072663;28;20233;-54
2022/04/18 00:56:00;;;;;;;8.70;8.10;;;8.80;52.00;;;;;;5072529;28;20205;-55
2022/04/18 00:58:27;;;;;;;8.75;8.25;;;8.70;52.50;;;;;;5072683;28;20204;-55
2022/04/18 01:00:54;;;;;;;9.20;8.60;;;8.70;53.20;;;;;;5071222;28;20665;-55
2022/04/18 01:03:21;;;;;;;8.85;8.20;;;8.70;53.30;;;;;;5072669;28;20201;-55
2022/04/18 01:05:49;;;;;;;8.85;8.25;;;8.60;53.20;;;;;;5072622;28;20215;-55
2022/04/18 01:08:17;;;;;;;8.95;8.38;;;8.60;53.30;;;;;;5072392;28;20292;-54
2022/04/18 01:10:45;;;;;;;9.13;8.63;;;8.60;52.90;;;;;;5072487;28;20321;-55
2022/04/18 01:13:12;;;;;;;8.80;8.30;;;8.50;53.20;;;;;;5072456;28;20236;-54
2022/04/18 01:15:39;;;;;;;9.00;8.30;;;8.50;53.20;;;;;;5071353;28;20638;-54
2022/04/18 01:18:06;;;;;;;8.75;8.30;;;8.50;54.40;;;;;;5072506;28;20219;-55
2022/04/18 01:20:35;;;;;;;9.00;8.50;;;8.50;54.00;;;;;;5072419;28;20206;-55
2022/04/18 01:23:06;;;;;;;8.77;8.27;;;8.50;54.60;;;;;;5072211;28;20292;-54
2022/04/18 01:31:02;;;;;;;8.15;7.75;;;8.50;54.40;;;;;;5071429;28;20323;-55
2022/04/18 01:33:30;;;;;;;9.70;8.98;;;8.50;54.00;;;;;;5072224;28;20236;-55
2022/04/18 01:35:57;;;;;;;9.00;8.45;;;8.50;54.10;;;;;;5072359;28;20203;-55
2022/04/18 01:38:26;;;;;;;8.98;8.35;;;8.50;53.50;;;;;;5072321;28;20274;-55
2022/04/18 01:40:53;;;;;;;9.10;8.50;;;8.50;53.50;;;;;;5072069;28;20288;-55
2022/04/18 01:43:19;;;;;;;9.13;8.52;;;8.40;53.20;;;;;;5072099;28;20312;-55
2022/04/18 01:45:46;;;;;;;8.93;8.40;;;8.50;53.30;;;;;;5070763;28;20206;-54
2022/04/18 01:48:13;;;;;;;8.82;8.32;;;8.50;54.20;;;;;;5072075;28;20290;-55
2022/04/18 01:50:40;;;;;;;9.10;8.50;;;8.40;54.40;;;;;;5072132;28;20209;-55
2022/04/18 01:53:07;;;;;;;9.38;8.77;;;8.30;54.00;;;;;;5072133;28;20231;-55
2022/04/18 01:55:36;;;;;;;8.98;8.40;;;8.30;54.30;;;;;;5072225;28;20556;-54
2022/04/18 01:58:05;;;;;;;9.30;8.70;;;8.30;54.40;;;;;;5075336;28;20664;-55
2022/04/18 02:00:32;;;;;;;9.85;9.07;;;8.30;53.70;;;;;;5074251;28;20210;-54
2022/04/18 02:02:59;;;;;;;8.90;8.25;;;8.30;54.00;;;;;;5075672;28;20209;-55
2022/04/18 02:05:26;;;;;;;9.63;8.75;;;8.20;54.00;;;;;;5075569;28;20205;-55
2022/04/18 02:07:53;;;;;;;9.10;8.50;;;8.20;54.20;;;;;;5075521;28;20209;-56
2022/04/18 02:10:20;;;;;;;10.35;9.70;;;8.20;55.30;;;;;;5075334;28;20210;-55
2022/04/18 02:12:49;;;;;;;9.90;9.10;;;8.20;54.30;;;;;;5075454;28;20233;-55
2022/04/18 02:15:16;;;;;;;9.43;8.93;;;8.20;55.80;;;;;;5074201;28;20247;-54
2022/04/18 02:17:43;;;;;;;9.13;8.50;;;8.20;55.10;;;;;;5075402;28;20198;-55
2022/04/18 02:20:10;;;;;;;9.07;8.55;;;8.10;55.80;;;;;;5075518;28;20215;-55
2022/04/18 02:22:37;;;;;;;8.95;8.45;;;8.10;55.60;;;;;;5075332;28;20292;-55
2022/04/18 02:25:05;;;;;;;10.00;9.40;;;8.10;54.90;;;;;;5075193;28;20230;-55
2022/04/18 02:27:32;;;;;;;9.65;9.05;;;8.20;54.70;;;;;;5075075;28;20205;-56
2022/04/18 02:30:00;;;;;;;9.35;8.75;;;8.20;54.40;;;;;;5073830;28;20209;-55
2022/04/18 02:35:11;;;;;;;10.15;9.45;;;8.10;54.90;;;;;;5075177;28;20290;-56
2022/04/18 02:37:38;;;;;;;9.95;9.13;;;8.10;54.60;;;;;;5075037;28;20208;-55
2022/04/18 02:40:06;;;;;;;8.77;8.18;;;8.10;55.00;;;;;;5074696;28;20682;-54
2022/04/18 02:42:33;;;;;;;10.30;9.60;;;8.10;54.90;;;;;;5074755;28;20589;-55
2022/04/18 02:45:01;;;;;;;9.52;8.90;;;8.10;55.20;;;;;;5073642;28;20311;-55
2022/04/18 02:47:28;;;;;;;9.20;8.70;;;8.10;55.00;;;;;;5074903;28;20207;-55
2022/04/18 02:49:55;;;;;;;9.63;8.82;;;8.10;54.60;;;;;;5074606;28;20676;-55
2022/04/18 02:52:22;;;;;;;9.88;9.18;;;8.10;54.80;;;;;;5074680;28;20239;-55
2022/04/18 02:54:49;;;;;;;9.70;9.00;;;8.10;55.70;;;;;;5074681;28;20204;-55
2022/04/18 02:57:15;;;;;;;9.23;8.52;;;8.10;55.50;;;;;;5074487;28;20683;-55
2022/04/18 02:59:42;;;;;;;10.13;9.43;;;8.10;56.10;;;;;;5073313;28;20240;-55
2022/04/18 03:02:11;;;;;;;9.23;8.52;;;8.10;55.70;;;;;;5074442;28;20241;-55
2022/04/18 03:04:37;;;;;;;10.55;9.60;;;8.10;56.10;;;;;;5074419;28;20268;-55
2022/04/18 03:07:05;;;;;;;10.43;9.68;;;8.10;57.20;;;;;;5074433;28;20339;-55
2022/04/18 03:09:32;;;;;;;10.55;9.55;;;8.00;56.60;;;;;;5074390;28;20201;-55
2022/04/18 03:12:02;;;;;;;9.25;8.73;;;8.00;55.90;;;;;;5074229;28;20249;-55
2022/04/18 03:14:29;;;;;;;9.27;8.70;;;8.00;55.80;;;;;;5073032;28;20209;-55
2022/04/18 03:16:55;;;;;;;8.85;8.30;;;8.10;55.90;;;;;;5074315;28;20204;-55
2022/04/18 03:19:24;;;;;;;9.52;8.82;;;8.10;56.10;;;;;;5074191;28;20208;-55
2022/04/18 03:21:51;;;;;;;9.32;8.73;;;8.10;55.80;;;;;;5074045;28;20204;-55
2022/04/18 03:24:18;;;;;;;10.40;9.60;;;8.10;56.60;;;;;;5074073;28;20233;-55
2022/04/18 03:26:45;;;;;;;9.55;8.85;;;8.00;56.20;;;;;;5073828;28;20205;-55
2022/04/18 03:29:12;;;;;;;9.38;8.68;;;8.00;56.10;;;;;;5072706;28;20211;-56
2022/04/18 03:31:39;;;;;;;9.25;8.65;;;8.00;55.90;;;;;;5073921;28;20685;-55
2022/04/18 03:34:06;;;;;;;10.07;9.38;;;7.90;56.50;;;;;;5073959;28;20295;-54
2022/04/18 03:42:03;;;;;;;9.38;8.80;;;7.80;56.20;;;;;;5073741;28;20248;-55
2022/04/18 03:44:30;;;;;;;9.10;8.60;;;7.80;56.50;;;;;;5072487;28;20241;-55
2022/04/18 03:46:57;;;;;;;10.10;9.30;;;7.70;56.10;;;;;;5073631;28;20240;-54
2022/04/18 03:49:24;;;;;;;9.50;8.70;;;7.70;56.10;;;;;;5073518;28;20311;-55
2022/04/18 03:51:52;;;;;;;9.40;8.80;;;7.70;56.10;;;;;;5073615;28;20207;-54
2022/04/18 03:54:19;;;;;;;9.43;8.73;;;7.70;55.70;;;;;;5073706;28;20721;-55
2022/04/18 03:56:46;;;;;;;8.95;8.43;;;7.70;56.00;;;;;;5073299;28;20727;-56
2022/04/18 03:59:13;;;;;;;10.10;9.25;;;7.80;55.30;;;;;;5072179;28;20239;-55
2022/04/18 04:01:40;;;;;;;9.82;9.02;;;7.80;55.10;;;;;;5073366;28;20222;-55
2022/04/18 04:04:07;;;;;;;9.38;8.70;;;7.80;54.80;;;;;;5073410;28;20593;-55
2022/04/18 04:06:33;;;;;;;10.38;9.55;;;7.70;54.90;;;;;;5073296;28;20675;-55
2022/04/18 04:09:02;;;;;;;8.73;8.32;;;7.60;54.90;;;;;;5073330;28;20241;-55
2022/04/18 04:11:29;;;;;;;9.13;8.63;;;7.60;55.60;;;;;;5073087;28;20678;-55
2022/04/18 04:13:56;;;;;;;10.10;9.35;;;7.60;55.30;;;;;;5071808;28;20208;-55
2022/04/18 04:16:23;;;;;;;9.00;8.40;;;7.60;54.90;;;;;;5073123;28;20201;-54
2022/04/18 04:18:50;;;;;;;9.45;8.85;;;7.60;54.60;;;;;;5072705;28;20299;-55
2022/04/18 04:21:17;;;;;;;9.50;8.90;;;7.60;54.50;;;;;;5073181;28;20200;-55
2022/04/18 04:23:44;;;;;;;10.65;9.95;;;7.50;54.90;;;;;;5072936;28;20707;-55
2022/04/18 04:26:12;;;;;;;9.40;8.80;;;7.50;55.10;;;;;;5072876;28;20211;-55
2022/04/18 04:28:39;;;;;;;9.57;8.98;;;7.50;54.70;;;;;;5072385;28;20478;-55
2022/04/18 04:31:06;;;;;;;9.55;8.90;;;7.50;54.50;;;;;;5072554;28;20567;-55
2022/04/18 04:33:33;;;;;;;8.95;8.35;;;7.40;55.30;;;;;;5072991;28;20212;-54
2022/04/18 04:36:00;;;;;;;10.10;9.40;;;7.40;55.50;;;;;;5072901;28;20207;-54
2022/04/18 04:38:27;;;;;;;10.10;9.40;;;7.40;55.10;;;;;;5073038;28;20196;-55
2022/04/18 04:40:55;;;;;;;9.15;8.45;;;7.30;55.40;;;;;;5072609;28;20651;-55
2022/04/18 04:43:27;;;;;;;8.45;7.95;;;7.30;55.10;;;;;;5072729;28;20235;-55
2022/04/18 04:45:55;;;;;;;9.05;8.52;;;7.30;55.20;;;;;;5071631;28;20209;-56
2022/04/18 04:48:22;;;;;;;9.30;8.70;;;7.30;54.80;;;;;;5072579;28;20249;-55
2022/04/18 04:50:49;;;;;;;8.75;8.10;;;7.20;56.50;;;;;;5072706;28;20292;-55
2022/04/18 04:53:16;;;;;;;9.73;9.02;;;7.10;55.70;;;;;;5072719;28;20216;-55
2022/04/18 04:55:42;;;;;;;9.52;8.82;;;7.10;55.00;;;;;;5072410;28;20682;-54
2022/04/18 04:58:10;;;;;;;8.88;8.38;;;6.90;55.20;;;;;;5072724;28;20212;-55
2022/04/18 05:00:38;;;;;;;8.80;8.20;;;6.80;55.60;;;;;;5071403;28;20204;-55
2022/04/18 05:03:06;;;;;;;9.60;9.00;;;6.70;55.60;;;;;;5072538;28;20204;-55
2022/04/18 05:05:33;;;;;;;9.15;8.45;;;6.70;55.10;;;;;;5072641;28;20201;-55
2022/04/18 05:08:00;;;;;;;10.30;9.60;;;6.70;55.70;;;;;;5072583;28;20592;-55
2022/04/18 05:10:27;;;;;;;9.57;8.93;;;6.80;57.20;;;;;;5072509;28;20236;-54
2022/04/18 05:12:54;;;;;;;9.57;8.93;;;6.80;56.50;;;;;;5072421;28;20201;-55
2022/04/18 05:15:21;;;;;;;9.13;8.63;;;6.90;56.20;;;;;;5071231;28;20201;-55
2022/04/18 05:17:49;;;;;;;9.00;8.50;;;6.90;56.40;;;;;;5072439;28;20205;-56
2022/04/18 05:20:16;;;;;;;9.20;8.52;;;6.90;56.30;;;;;;5072547;28;20231;-55
2022/04/18 05:22:43;;;;;;;9.60;8.90;;;6.90;55.70;;;;;;5072388;28;20205;-55
2022/04/18 05:25:10;;;;;;;9.32;8.55;;;6.90;55.40;;;;;;5072392;28;20232;-54
2022/04/18 05:27:37;;;;;;;8.77;8.18;;;7.00;55.80;;;;;;5072241;28;20201;-54
2022/04/18 05:30:05;;;;;;;9.45;8.75;;;7.00;55.10;;;;;;5070954;28;20209;-55
2022/04/18 05:32:32;;;;;;;9.95;9.07;;;7.10;55.90;;;;;;5075201;28;20211;-55
2022/04/18 05:35:00;;;;;;;9.60;8.82;;;7.10;55.00;;;;;;5076238;28;20226;-55
2022/04/18 05:37:27;;;;;;;9.50;8.90;;;7.20;55.20;;;;;;5076009;28;20737;-55
2022/04/18 05:39:54;;;;;;;9.98;9.13;;;7.30;54.80;;;;;;5076033;28;20685;-55
2022/04/18 05:42:23;;;;;;;9.98;9.27;;;7.30;54.90;;;;;;5075776;28;20315;-55
2022/04/18 05:44:50;;;;;;;9.50;8.90;;;7.40;54.80;;;;;;5074685;28;20237;-55
2022/04/18 05:47:17;;;;;;;9.85;9.25;;;7.50;54.50;;;;;;5075972;28;20218;-55
2022/04/18 05:49:44;;;;;;;9.02;8.32;;;7.50;54.90;;;;;;5075818;28;20593;-54
2022/04/18 05:52:14;;;;;;;10.30;9.60;;;7.60;54.90;;;;;;5075740;28;20243;-55
2022/04/18 05:54:41;;;;;;;10.00;9.30;;;7.60;55.50;;;;;;5075860;28;20300;-56
2022/04/18 05:57:08;;;;;;;10.07;9.40;;;7.60;56.10;;;;;;5075688;28;20283;-55
2022/04/18 05:59:35;;;;;;;9.93;9.23;;;7.60;54.90;;;;;;5074417;28;20229;-55
2022/04/18 06:02:02;;;;;;;9.70;9.02;;;7.60;54.70;;;;;;5075664;28;20664;-55
2022/04/18 06:04:28;;;;;;;9.90;9.18;;;7.70;54.80;;;;;;5075399;28;20597;-55
2022/04/18 06:06:55;;;;;;;9.45;8.73;;;7.80;55.00;;;;;;5075612;28;20247;-54
2022/04/18 06:09:23;;;;;;;9.20;8.60;;;7.90;54.60;;;;;;5075538;28;20201;-55
2022/04/18 06:11:51;;;;;;;10.13;9.43;;;7.90;54.80;;;;;;5075439;28;20208;-55
2022/04/18 06:14:18;;;;;;;9.82;9.23;;;8.00;54.40;;;;;;5074308;28;20549;-54
2022/04/18 06:16:44;;;;;;;8.80;8.30;;;8.10;53.80;;;;;;5075393;28;20243;-55
2022/04/18 06:19:11;;;;;;;9.73;8.95;;;8.10;54.40;;;;;;5075238;28;20682;-56
2022/04/18 06:21:38;;;;;;;9.40;8.80;;;8.10;53.80;;;;;;5075363;28;20244;-55
2022/04/18 06:24:05;;;;;;;10.48;9.88;;;8.10;53.40;;;;;;5075216;28;20232;-55
2022/04/18 06:26:33;;;;;;;10.48;9.50;;;8.10;53.40;;;;;;5075037;28;20208;-56
2022/04/18 06:29:00;;;;;;;10.60;9.80;;;8.00;53.40;;;;;;5073904;28;20621;-56
2022/04/18 06:31:27;;;;;;;10.20;9.40;;;7.90;53.80;;;;;;5075148;28;20209;-56
2022/04/18 06:33:54;;;;;;;10.50;9.70;;;7.90;53.90;;;;;;5074929;28;20823;-55
2022/04/18 06:36:21;;;;;;;10.40;9.70;;;7.90;54.00;;;;;;5075018;28;20211;-56
2022/04/18 06:38:48;;;;;;;10.20;9.50;;;7.90;54.60;;;;;;5075001;28;20223;-56
2022/04/18 06:41:14;;;;;;;9.70;9.10;;;7.90;54.40;;;;;;5074720;28;20233;-55
2022/04/18 06:43:43;;;;;;;11.23;10.20;;;7.80;55.10;;;;;;5073666;28;20300;-56
2022/04/18 06:46:10;;;;;;;10.30;9.70;;;7.80;55.20;;;;;;5074730;28;20213;-56
2022/04/18 06:48:36;;;;;;;11.50;10.65;;;7.90;55.10;;;;;;5074732;28;20772;-56
2022/04/18 06:51:03;;;;;;;11.70;10.80;;;8.00;55.10;;;;;;5074677;28;20768;-55
2022/04/18 06:53:30;;;;;;;11.10;10.20;;;8.10;55.30;;;;;;5074756;28;20205;-55
2022/04/18 06:58:43;;;;;;;10.43;9.60;;;8.40;55.70;;;;;;5073718;28;20207;-56
2022/04/18 07:01:10;;;;;;;10.32;9.55;;;8.50;55.30;;;;;;5074614;28;20218;-56
2022/04/18 07:03:37;;;;;;;10.65;9.98;;;8.70;55.00;;;;;;5074442;28;20660;-55
2022/04/18 07:06:04;;;;;;;10.75;10.05;;;8.80;54.80;;;;;;5074423;28;20198;-55
2022/04/18 07:08:30;;;;;;;10.98;10.27;;;8.90;54.20;;;;;;5074367;28;20654;-55
2022/04/18 07:10:57;;;;;;;11.27;10.30;;;9.10;54.50;;;;;;5074207;28;20248;-54
2022/04/18 07:13:25;;;;;;;10.52;9.82;;;9.10;53.70;;;;;;5074288;28;20236;-55
2022/04/18 07:15:54;;;;;;;11.20;10.40;;;9.20;53.70;;;;;;5072821;28;20274;-55
2022/04/18 07:18:21;;;;;;;10.95;10.32;;;9.30;53.70;;;;;;5074187;28;20621;-55
2022/04/18 07:20:48;;;;;;;11.13;10.40;;;9.40;53.50;;;;;;5074135;28;20241;-56
2022/04/18 07:23:15;;;;;;;10.80;10.10;;;9.50;52.30;;;;;;5074120;28;20206;-56
2022/04/18 07:25:42;;;;;;;11.18;10.38;;;9.60;53.00;;;;;;5074014;28;20326;-55
2022/04/18 07:28:09;;;;;;;11.02;10.13;;;9.70;53.00;;;;;;5073860;28;20293;-54
2022/04/18 07:30:35;;;;;;;10.68;9.98;;;9.80;52.80;;;;;;5072778;28;20614;-55
2022/04/18 07:33:04;;;;;;;11.55;10.63;;;9.90;52.50;;;;;;5073929;28;20206;-54
2022/04/18 07:35:32;;;;;;;10.90;10.13;;;10.00;52.60;;;;;;5073981;28;20214;-54
2022/04/18 07:40:43;;;;;;;11.88;10.98;;;10.00;51.40;;;;;;5073671;28;20252;-56
2022/04/18 07:43:10;;;;;;;11.30;10.48;;;9.90;52.20;;;;;;5073570;28;20581;-56
2022/04/18 07:45:37;;;;;;;11.90;11.10;;;10.00;52.00;;;;;;5072431;28;20333;-56
2022/04/18 07:48:07;;;;;;;10.90;10.10;;;10.10;52.00;;;;;;5073426;28;20206;-55
2022/04/18 07:53:18;;;;;;;11.70;10.90;;;10.20;51.30;;;;;;5073422;28;20206;-55
2022/04/18 07:55:45;;;;;;;12.52;11.60;;;10.30;51.20;;;;;;5073012;28;20643;-55
2022/04/18 07:58:12;;;;;;;12.20;11.30;;;10.40;50.40;;;;;;5073289;28;20211;-55
2022/04/18 08:00:39;;;;;;;11.70;10.80;;;10.40;50.60;;;;;;5072008;28;20237;-56
2022/04/18 08:03:07;;;;;;;11.10;10.40;;;10.60;51.00;;;;;;5073497;28;20213;-55
2022/04/18 08:05:34;;;;;;;12.10;11.05;;;10.70;51.70;;;;;;5073144;28;20329;-55
2022/04/18 08:08:01;;;;;;;11.13;10.43;;;10.80;51.90;;;;;;5073254;28;20205;-54
2022/04/18 08:10:28;;;;;;;11.30;10.52;;;10.80;50.50;;;;;;5073267;28;20634;-54
2022/04/18 08:12:55;;;;;;;11.32;10.50;;;10.80;49.80;;;;;;5073110;28;20619;-55
2022/04/18 08:15:22;;;;;;;11.25;10.55;;;10.90;50.40;;;;;;5071922;28;20297;-55
2022/04/18 08:17:49;;;;;;;11.60;10.80;;;10.90;50.60;;;;;;5073116;28;20211;-53
2022/04/18 08:20:17;;;;;;;11.35;10.57;;;11.00;51.50;;;;;;5073047;28;20200;-55
2022/04/18 08:22:44;;;;;;;12.05;11.02;;;11.00;50.30;;;;;;5073155;28;20290;-55
2022/04/18 08:25:11;;;;;;;11.05;10.35;;;11.20;50.80;;;;;;5072936;28;20335;-55
2022/04/18 08:27:38;;;;;;;11.65;10.55;;;11.20;50.40;;;;;;5072754;28;20326;-55
2022/04/18 08:30:05;;;;;;;11.45;10.65;;;11.30;49.80;;;;;;5071561;28;20243;-55
2022/04/18 08:32:36;;;;;;;11.35;10.50;;;11.30;49.40;;;;;;5072896;28;20204;-55
2022/04/18 08:35:03;;;;;;;11.88;11.18;;;11.40;49.70;;;;;;5072812;28;20211;-55
2022/04/18 08:37:31;;;;;;;11.30;10.40;;;11.50;48.60;;;;;;5072912;28;20295;-55
2022/04/18 08:39:58;;;;;;;11.98;11.23;;;11.50;50.00;;;;;;5072783;28;20204;-55
2022/04/18 08:42:26;;;;;;;11.23;10.48;;;11.70;49.00;;;;;;5072639;28;20237;-55
2022/04/18 08:44:54;;;;;;;11.82;11.13;;;11.70;49.90;;;;;;5071276;28;20239;-56
2022/04/18 08:52:53;;;;;;;12.80;11.80;;;12.10;49.10;;;;;;5072727;28;20200;-55
2022/04/18 08:55:20;;;;;;;12.10;11.30;;;12.20;49.10;;;;;;5072819;28;20204;-54
2022/04/18 08:57:47;;;;;;;11.40;10.60;;;12.40;47.10;;;;;;5072257;28;20200;-55
2022/04/18 09:00:14;;;;;;;13.15;12.35;;;12.50;48.40;;;;;;5071319;28;20239;-55
2022/04/18 09:02:41;;;;;;;12.43;11.63;;;12.50;48.50;;;;;;5072532;28;20216;-55
2022/04/18 09:05:11;;;;;;;12.32;11.52;;;12.60;47.60;;;;;;5073093;28;20239;-55
2022/04/18 09:07:43;;;;;;;11.93;11.05;;;12.70;47.20;;;;;;5076720;28;20205;-55
2022/04/18 09:10:12;;;;;;;11.43;10.70;;;12.70;46.80;;;;;;5076635;28;20208;-55
2022/04/18 09:12:42;;;;;;;11.27;10.35;;;12.60;47.30;;;;;;5076472;28;20295;-55
2022/04/18 09:15:10;;;;;;;11.38;10.68;;;12.60;47.70;;;;;;5075370;28;20211;-55
2022/04/18 09:17:38;;;;;;;11.70;10.85;;;12.60;48.00;;;;;;5076479;28;20569;-55
2022/04/18 09:20:07;;;;;;;11.18;10.40;;;12.70;46.90;;;;;;5076425;28;20254;-54
2022/04/18 09:22:42;;;;;;;11.57;10.68;;;12.80;47.40;;;;;;5076390;28;20304;-55
2022/04/18 09:25:19;;;;;;;11.13;10.45;;;13.00;47.00;;;;;;5076166;28;20227;-54
2022/04/18 09:27:54;;;;;;;11.73;10.88;;;13.00;47.70;;;;;;5076248;28;20208;-56
2022/04/18 09:30:21;;;;;;;12.13;11.25;;;13.00;46.20;;;;;;5074817;28;20214;-55
2022/04/18 09:32:56;;;;;;;11.68;10.98;;;13.00;44.50;;;;;;5076203;28;20629;-55
2022/04/18 09:35:26;;;;;;;12.20;11.45;;;13.10;45.80;;;;;;5076120;28;20218;-56
2022/04/18 09:37:54;;;;;;;11.75;11.05;;;12.80;44.10;;;;;;5076108;28;20197;-55
2022/04/18 09:40:24;;;;;;;10.88;10.13;;;12.70;46.10;;;;;;5075956;28;20228;-55
2022/04/18 09:42:53;;;;;;;10.73;10.13;;;12.90;45.90;;;;;;5075898;28;20671;-54
2022/04/18 09:45:21;;;;;;;11.43;10.73;;;13.10;45.90;;;;;;5074569;28;20700;-55
2022/04/18 09:47:55;;;;;;;11.68;10.88;;;13.20;45.20;;;;;;5075809;28;20204;-54
2022/04/18 09:53:09;;;;;;;11.85;11.05;;;13.50;44.70;;;;;;5075908;28;20204;-55
2022/04/18 09:55:38;;;;;;;11.25;10.43;;;13.70;45.00;;;;;;5075747;28;20209;-55
2022/04/18 09:58:05;;;;;;;11.80;11.07;;;13.80;44.10;;;;;;5075587;28;20247;-55
2022/04/18 10:00:32;;;;;;;11.63;10.93;;;13.90;43.60;;;;;;5074357;28;20292;-55
2022/04/18 10:03:01;;;;;;;12.15;11.40;;;13.90;45.10;;;;;;5075864;28;20204;-56
2022/04/18 10:05:28;;;;;;;11.88;11.18;;;14.10;44.90;;;;;;5075518;28;20236;-55
2022/04/18 10:07:56;;;;;;;13.57;12.35;;;14.00;44.50;;;;;;5075447;28;20201;-55
2022/04/18 10:10:24;;;;;;;12.30;11.52;;;14.00;45.40;;;;;;5075503;28;20656;-56
2022/04/18 10:12:52;;;;;;;11.50;10.75;;;14.10;41.40;;;;;;5075120;28;20669;-55
2022/04/18 10:15:19;;;;;;;12.00;11.00;;;14.00;43.60;;;;;;5074176;28;20284;-56
2022/04/18 10:17:46;;;;;;;11.10;10.50;;;14.10;43.70;;;;;;5074579;28;20201;-54
2022/04/18 10:20:29;;;;;;;10.82;10.23;;;14.30;44.90;;;;;;5075376;28;20211;-55
2022/04/18 10:23:15;;;;;;;11.90;11.00;;;14.60;44.20;;;;;;5075269;28;20300;-55
2022/04/18 10:26:15;;;;;;;11.80;11.00;;;14.80;42.70;;;;;;5075100;28;20632;-55
2022/04/18 10:28:46;;;;;;;11.40;10.70;;;15.00;40.80;;;;;;5074301;28;20447;-54
2022/04/18 10:31:17;;;;;;;12.57;11.77;;;15.10;41.20;;;;;;5074869;28;20529;-55
2022/04/18 10:33:45;;;;;;;11.68;10.73;;;15.20;41.10;;;;;;5075000;28;20533;-55
2022/04/18 10:36:12;;;;;;;13.13;12.23;;;14.90;41.20;;;;;;5075001;28;20240;-55
2022/04/18 10:38:41;;;;;;;11.97;11.17;;;14.30;41.40;;;;;;5075003;28;20508;-55
2022/04/18 10:41:32;;;;;;;12.77;11.83;;;14.40;42.00;;;;;;5074739;28;20803;-56
2022/04/18 10:44:05;;;;;;;11.10;10.40;;;14.40;42.60;;;;;;5073362;28;20454;-55
2022/04/18 10:46:31;;;;;;;13.10;12.20;;;14.60;41.80;;;;;;5074693;28;20232;-56
2022/04/18 10:49:00;;;;;;;12.00;11.10;;;14.80;43.40;;;;;;5074601;28;20483;-55
2022/04/18 10:51:31;;;;;;;11.67;10.87;;;15.10;42.20;;;;;;5074593;28;20474;-55
2022/04/18 10:54:10;;;;;;;12.17;11.27;;;15.40;41.30;;;;;;5074677;28;20478;-55
2022/04/18 10:56:48;;;;;;;12.80;11.90;;;15.60;43.00;;;;;;5074578;28;20530;-55
2022/04/18 10:59:17;;;;;;;11.93;11.27;;;15.80;41.60;;;;;;5073392;28;20447;-55
2022/04/18 11:01:44;;;;;;;12.37;11.53;;;15.70;42.20;;;;;;5074536;28;20542;-55
2022/04/18 11:04:12;;;;;;;12.10;11.20;;;15.70;41.00;;;;;;5074598;28;20451;-56
2022/04/18 11:06:57;;;;;;;12.27;11.57;;;15.90;41.80;;;;;;5074407;28;20492;-55
2022/04/18 11:09:25;;;;;;;11.77;11.07;;;16.10;43.20;;;;;;5074504;28;20475;-56
2022/04/18 11:11:55;;;;;;;12.00;11.20;;;16.30;42.60;;;;;;5074164;28;20454;-55
2022/04/18 11:14:26;;;;;;;12.10;11.30;;;16.40;40.40;;;;;;5072836;28;20976;-55
2022/04/18 11:16:55;;;;;;;12.00;11.23;;;16.70;40.60;;;;;;5074347;28;20447;-55
2022/04/18 11:19:24;;;;;;;12.20;11.40;;;17.60;39.20;;;;;;5074093;28;20460;-55
2022/04/18 11:22:19;;;;;;;11.50;10.80;;;19.30;36.50;;;;;;5074106;28;20455;-56
2022/04/18 11:24:58;;;;;;;12.17;11.37;;;21.30;35.00;;;;;;5060685;28;20466;-56
2022/04/18 11:27:32;;;;;;;12.00;11.30;;;23.30;29.20;;;;;;5073991;28;20458;-56
2022/04/18 11:30:03;;;;;;;12.60;11.80;;;24.60;29.70;;;;;;5071544;28;20471;-57
2022/04/18 11:32:32;;;;;;;11.53;10.73;;;24.80;25.20;;;;;;5073842;28;20443;-56
2022/04/18 11:35:01;;;;;;;13.00;12.20;;;24.50;28.20;;;;;;5074045;28;20522;-57
2022/04/18 11:37:29;;;;;;;11.93;11.23;;;24.60;27.00;;;;;;5073877;28;20531;-56
2022/04/18 11:39:58;;;;;;;12.03;11.30;;;24.80;29.50;;;;;;5073815;28;20470;-57
2022/04/18 11:42:27;;;;;;;11.97;11.33;;;25.00;28.50;;;;;;5073419;28;20443;-56
2022/04/18 11:44:56;;;;;;;13.00;12.20;;;25.60;29.00;;;;;;5072426;28;20449;-57
2022/04/18 11:47:27;;;;;;;12.40;11.70;;;26.20;28.00;;;;;;5073672;28;21020;-56
2022/04/18 11:49:55;;;;;;;13.20;12.40;;;26.80;27.10;;;;;;5073602;28;20505;-56
2022/04/18 11:52:24;;;;;;;12.63;11.87;;;27.40;26.20;;;;;;5073495;28;20504;-56
2022/04/18 11:55:00;;;;;;;12.20;11.50;;;27.80;25.10;;;;;;5073401;28;20447;-56
2022/04/18 11:57:28;;;;;;;11.33;10.73;;;28.10;23.90;;;;;;5073371;28;20529;-56
2022/04/18 11:59:55;;;;;;;12.37;11.57;;;28.30;24.80;;;;;;5072169;28;20447;-55
2022/04/18 12:07:57;;;;;;;12.40;11.70;;;25.80;23.00;;;;;;5073421;28;20546;-55
2022/04/18 12:10:26;;;;;;;11.20;10.57;;;24.10;26.70;;;;;;5073233;28;20457;-56
2022/04/18 12:12:54;;;;;;;12.20;11.50;;;24.50;28.30;;;;;;5072874;28;20509;-56
2022/04/18 12:15:23;;;;;;;11.43;10.63;;;25.00;26.80;;;;;;5071820;28;20466;-55
2022/04/18 12:17:52;;;;;;;11.20;10.50;;;25.10;28.00;;;;;;5073092;28;20459;-56
2022/04/18 12:20:21;;;;;;;10.70;10.10;;;25.10;27.00;;;;;;5073023;28;20930;-56
2022/04/18 12:22:51;;;;;;;10.53;10.00;;;24.90;26.60;;;;;;5073017;28;20535;-57
2022/04/18 12:25:20;;;;;;;11.67;10.97;;;24.80;26.80;;;;;;5072840;28;20534;-55
2022/04/18 12:27:47;;;;;;;11.03;10.43;;;24.80;26.60;;;;;;5072904;28;20919;-55
2022/04/18 12:30:14;;;;;;;11.10;10.40;;;24.60;26.50;;;;;;5071392;28;20451;-56
2022/04/18 12:32:44;;;;;;;10.53;9.93;;;24.20;28.10;;;;;;5072814;28;20440;-56
2022/04/18 12:35:13;;;;;;;11.07;10.40;;;23.80;27.40;;;;;;5072837;28;20547;-57
2022/04/18 12:37:46;;;;;;;10.47;9.87;;;22.90;29.30;;;;;;5072822;28;20577;-56
2022/04/18 12:40:15;;;;;;;10.67;10.00;;;22.80;29.10;;;;;;5072386;28;20471;-56
2022/04/18 12:42:49;;;;;;;10.80;10.13;;;22.50;29.40;;;;;;5072637;28;20451;-55
2022/04/18 12:45:16;;;;;;;10.47;9.87;;;22.30;29.30;;;;;;5071529;28;20458;-56
2022/04/18 12:47:43;;;;;;;11.10;10.40;;;22.20;29.00;;;;;;5072700;28;20450;-56
2022/04/18 12:50:13;;;;;;;11.37;10.67;;;22.10;29.00;;;;;;5072590;28;20946;-56
2022/04/18 12:52:51;;;;;;;10.80;10.20;;;21.90;29.30;;;;;;5071585;28;20459;-56
2022/04/18 12:55:26;;;;;;;10.87;10.23;;;21.70;30.50;;;;;;5072619;28;20447;-55
2022/04/18 12:57:54;;;;;;;11.20;10.50;;;21.50;30.00;;;;;;5072463;28;20439;-55
2022/04/18 13:00:21;;;;;;;11.10;10.37;;;21.40;30.00;;;;;;5071287;28;20461;-55
2022/04/18 13:02:59;;;;;;;10.40;9.83;;;21.20;29.50;;;;;;5072705;28;20967;-55
2022/04/18 13:05:29;;;;;;;11.77;10.87;;;20.90;29.60;;;;;;5072594;28;20479;-56
2022/04/18 13:08:03;;;;;;;10.90;10.20;;;20.70;31.60;;;;;;5072464;28;20815;-55
2022/04/18 13:10:33;;;;;;;11.03;10.43;;;20.40;32.70;;;;;;5072440;28;20451;-56
2022/04/18 13:13:02;;;;;;;10.00;9.40;;;20.30;31.60;;;;;;5072568;28;20881;-56
2022/04/18 13:15:29;;;;;;;11.30;10.13;;;20.20;31.60;;;;;;5071280;28;20446;-55
2022/04/18 13:17:57;;;;;;;10.40;9.90;;;20.20;31.20;;;;;;5072453;28;20530;-54
2022/04/18 13:20:24;;;;;;;10.90;10.30;;;20.40;31.30;;;;;;5072378;28;20530;-55
2022/04/18 13:22:52;;;;;;;12.07;11.27;;;20.50;31.30;;;;;;5072353;28;20534;-57
2022/04/18 13:25:19;;;;;;;10.80;10.20;;;20.60;31.30;;;;;;5072344;28;20478;-56